• Join FlightAware (Why Join?)
  • Login
  • US Flag 
12:48PM EDT


 

Airport Tracker/Info


-or-


 

Live Flight TrackerFlight Track Log ✈ AIP1801 ✈ 12-Jul-2013 ✈ KBIL - KDEN

Flight Track Log - Related Links

Times and Time Zones

All times are in EDT time to prevent confusion due to time zone crossing. See the AIP1801 flight status page for this flight to view local times or setup timezone preferences in your user account.

Time Position Orientation Groundspeed Altitude Reporting Facility
EDT Latitude Longitude Course Direction KTS MPH feet Rate Location/Type
09:16PM 45.8008 -108.5167 151° Southeast 139 160 4,700  Level Salt Lake Center
09:17PM 45.7578 -108.4922 158° South 155 178 6,500 1,620 Climbing Salt Lake Center
09:18PM 45.7178 -108.4600 151° Southeast 164 189 8,100 1,560 Climbing Salt Lake Center
09:19PM 45.6722 -108.4244 151° Southeast 173 199 9,800 1,500 Climbing Salt Lake Center
09:20PM 45.6286 -108.3886 150° Southeast 180 207 11,200 1,440 Climbing Salt Lake Center
09:21PM 45.5839 -108.3553 152° Southeast 183 211 12,800 1,500 Climbing Salt Lake Center
09:22PM 45.4714 -108.2814 151° Southeast  Level FlightAware Approximate
09:22PM 45.5325 -108.3156 152° Southeast 194 223 14,300  Level Salt Lake Center
09:23PM 45.4825 -108.2761 151° Southeast 204 235 15,600 1,260 Climbing Salt Lake Center
09:24PM 45.4269 -108.2353 153° Southeast 210 242 17,000 1,260 Climbing Salt Lake Center
09:25PM 45.3733 -108.1953 152° Southeast 218 251 18,200 1,020 Climbing Salt Lake Center
09:26PM 45.3211 -108.1528 150° Southeast 219 252 19,100 1,020 Climbing Salt Lake Center
09:28PM 45.2639 -108.1078 151° Southeast 222 255 20,400 900 Climbing Salt Lake Center
09:29PM 45.2097 -108.0692 153° Southeast 221 254 21,000 240 Climbing Salt Lake Center
09:30PM 45.1486 -108.0258 153° Southeast 246 283 21,000  Level Salt Lake Center
09:31PM 45.0861 -107.9764 151° Southeast 253 291 21,000  Level Salt Lake Center
09:32PM 45.0258 -107.9303 152° Southeast 248 285 21,000  Level Salt Lake Center
09:33PM 44.9650 -107.8833 151° Southeast 248 285 21,000  Level Salt Lake Center
09:34PM 44.9011 -107.8358 152° Southeast 253 291 21,000  Level Salt Lake Center
09:35PM 44.8369 -107.7881 152° Southeast 254 292 21,000  Level Salt Lake Center
09:36PM 44.7622 -107.7378 154° Southeast 245 282 21,000  Level Salt Lake Center
09:37PM 44.7017 -107.6906 151° Southeast 246 283 21,000 -60 Level Salt Lake Center
09:38PM 44.6411 -107.6450 152° Southeast 247 284 20,900  Descending Salt Lake Center
09:39PM 44.5808 -107.6014 153° Southeast 245 282 21,000  Climbing Salt Lake Center
09:40PM 44.5211 -107.5600 154° Southeast 242 278 21,000  Level Salt Lake Center
09:41PM 44.4606 -107.5131 151° Southeast 246 283 21,000  Level Salt Lake Center
09:42PM 44.3986 -107.4725 155° Southeast 246 283 21,000  Level Salt Lake Center
09:43PM 44.3372 -107.4269 152° Southeast 249 287 21,000  Level Salt Lake Center
09:44PM 44.2753 -107.3811 152° Southeast 250 288 21,000  Level Salt Lake Center
09:45PM 44.2003 -107.3311 154° Southeast 249 287 21,100  Climbing Salt Lake Center
09:46PM 44.1394 -107.2853 152° Southeast 250 288 21,000 -60 Descending Salt Lake Center
09:47PM 44.0778 -107.2386 151° Southeast 252 290 21,000  Level Salt Lake Center
09:48PM 44.0164 -107.1931 152° Southeast 250 288 21,100  Climbing Salt Lake Center
09:49PM 43.9539 -107.1494 153° Southeast 251 289 21,000 -60 Descending Salt Lake Center
09:50PM 43.9033 -107.1161 155° Southeast 253 291 21,000  Level Denver Center
09:51PM 43.8400 -107.0717 153° Southeast 254 292 21,000  Level Denver Center
09:52PM 43.7783 -107.0242 151° Southeast 253 291 21,000  Level Denver Center
09:53PM 43.7147 -106.9811 154° Southeast 253 291 21,000  Level Denver Center
09:54PM 43.6517 -106.9361 153° Southeast 254 292 21,000  Level Denver Center
09:55PM 43.5872 -106.8894 152° Southeast 260 299 21,100  Climbing Denver Center
09:56PM 43.5264 -106.8506 155° Southeast 257 296 21,000 -60 Descending Denver Center
09:57PM 43.4461 -106.7875 150° Southeast 262 302 21,000  Level Denver Center
09:58PM 43.3842 -106.7461 154° Southeast 259 298 21,000  Level Denver Center
09:59PM 43.3103 -106.7006 156° South 259 298 21,000  Level Denver Center
10:00PM 43.2503 -106.6556 151° Southeast 257 296 21,000  Level Denver Center
10:01PM 43.1903 -106.6131 153° Southeast 254 292 21,000  Level Denver Center
10:02PM 43.1203 -106.5658 154° Southeast 252 290 21,000  Level Denver Center
10:03PM 43.0628 -106.5267 154° Southeast 244 281 21,000  Level Denver Center
10:04PM 42.9919 -106.4769 153° Southeast 253 291 21,100  Climbing Denver Center
10:05PM 42.9314 -106.4331 152° Southeast 257 296 21,000 -60 Descending Denver Center
10:06PM 42.8600 -106.3828 153° Southeast 260 299 21,000  Level Denver Center
10:07PM 42.7992 -106.3431 154° Southeast 254 292 21,000  Level Denver Center
10:08PM 42.7286 -106.2944 153° Southeast 252 290 21,000  Level Denver Center
10:09PM 42.6697 -106.2536 153° Southeast 249 287 21,000  Level Denver Center
10:10PM 42.5994 -106.2078 154° Southeast 250 288 21,000  Level Denver Center
10:11PM 42.5403 -106.1661 153° Southeast 251 289 21,000  Level Denver Center
10:12PM 42.4819 -106.1250 153° Southeast 249 287 21,000  Level Denver Center
10:13PM 42.4136 -106.0789 154° Southeast 246 283 21,000  Level Denver Center
10:14PM 42.3531 -106.0386 154° Southeast 251 289 21,100  Climbing Denver Center
10:16PM 42.2797 -105.9914 155° Southeast 261 300 21,000 -60 Descending Denver Center
10:17PM 42.2175 -105.9528 155° Southeast 258 297 21,000  Level Denver Center
10:18PM 42.1478 -105.9039 153° Southeast 253 291 21,000  Level Denver Center
10:19PM 42.0856 -105.8619 153° Southeast 259 298 21,000  Level Denver Center
10:20PM 42.0158 -105.8119 152° Southeast 257 296 21,100  Climbing Denver Center
10:21PM 41.9542 -105.7772 157° South 253 291 21,000 -60 Descending Denver Center
10:22PM 41.8839 -105.7242 151° Southeast 259 298 21,000  Level Denver Center
10:23PM 41.8217 -105.6850 155° Southeast 259 298 21,000  Level Denver Center
10:24PM 41.7597 -105.6469 155° Southeast 257 296 21,000  Level Denver Center
10:25PM 41.6858 -105.5986 154° Southeast 262 302 21,000  Level Denver Center
10:26PM 41.6231 -105.5581 154° Southeast 262 302 21,100  Climbing Denver Center
10:27PM 41.5519 -105.5081 152° Southeast 259 298 21,000 -720 Descending Denver Center
10:28PM 41.4931 -105.4717 155° Southeast 250 288 19,700 -1,260 Descending Denver Center
10:29PM 41.4283 -105.4294 154° Southeast 236 272 18,400 -1,080 Descending Denver Center
10:30PM 41.3714 -105.3944 155° Southeast 236 272 17,500 -1,020 Descending Denver Center
10:31PM 41.3053 -105.3486 152° Southeast 239 275 16,400 -1,020 Descending Denver Center
10:32PM 41.2472 -105.3114 154° Southeast 241 277 15,500 -960 Descending Denver Center
10:33PM 41.1894 -105.2767 156° South 240 276 14,500 -1,080 Descending Denver Center
10:34PM 41.1225 -105.2308 153° Southeast 241 277 13,300 -780 Descending Denver Center
10:35PM 41.0656 -105.1967 156° South 238 274 13,000 -180 Descending Denver Center
10:36PM 40.9978 -105.1514 153° Southeast 245 282 13,000  Level Denver Center
10:37PM 40.9342 -105.1100 154° Southeast 254 292 13,100  Climbing Denver Center
10:38PM 40.8728 -105.0708 154° Southeast 248 285 13,000 -180 Descending Denver Center
10:39PM 40.8072 -105.0453 164° South 247 284 12,800 -720 Descending Denver Center
10:40PM 40.7306 -105.0194 166° South 253 291 11,600 -900 Descending Denver Center
10:41PM 40.6681 -104.9953 164° South 236 272 11,000 -300 Descending Denver Center
10:42PM 40.5994 -104.9664 162° South 239 275 11,100  Climbing Denver Center
10:43PM 40.5350 -104.9417 164° South 242 278 11,100  Level Denver Center
10:44PM 40.4692 -104.9142 162° South 231 266 11,100 -60 Level Denver Center
10:45PM 40.4131 -104.8928 164° South 213 245 11,000 -60 Descending Denver Center
10:46PM 40.3561 -104.8733 165° South 212 244 11,000  Level Denver Center
10:48PM 40.2944 -104.8500 164° South 215 247 11,100  Climbing Denver Center
10:49PM 40.2233 -104.8228 164° South 216 249 11,000  Descending Denver Center
10:50PM 40.1642 -104.7994 163° South 221 254 11,100  Climbing Denver Center
10:51PM 40.1147 -104.7717 157° South 227 261 11,000  Descending Denver Center
10:52PM 40.0522 -104.7128 144° Southeast 226 260 11,100  Climbing Denver Center
10:53PM 40.0050 -104.6586 139° Southeast 226 260 11,000  Descending Denver Center
10:54PM 39.9575 -104.6042 139° Southeast 227 261 11,100  Climbing Denver Center
10:55PM 39.9047 -104.5408 137° Southeast 237 273 11,100 -60 Level Denver Center
10:56PM 39.8428 -104.5186 165° South 246 283 11,000  Descending Denver Center
10:57PM 39.7578 -104.5247 183° South 247 284 11,100 -360 Climbing Denver Center
10:58PM 39.6911 -104.5253 180° South 241 277 10,300 -540 Descending Denver Center
10:59PM 39.6350 -104.5589 205° Southwest 222 255 10,100 -360 Descending Denver Center
11:00PM 39.6264 -104.6103 258° West 194 223 9,600 -900 Descending Denver Center
11:01PM 39.6828 -104.6314 344° North 160 184 8,300 -1,080 Descending Denver Center
11:02PM 39.7208 -104.6433 346° North 148 170 7,400 -780 Descending Denver Center
11:03PM 39.7600 -104.6431 360° North 143 165 6,800 -660 Descending Denver Center
11:04PM 39.8000 -104.6422 North 135 155 6,100 -720 Descending Denver Center
11:05PM 39.8339 -104.6419 360° North 122 140 5,400 -720 Descending Denver Center